createdAt,value
2022-11-26T00:01:18.295Z,56.14
2022-11-26T00:03:47.032Z,58.94
2022-11-26T00:06:36.680Z,60.77
2022-11-26T00:09:07.163Z,69.96
2022-11-26T00:11:35.146Z,66.81
2022-11-26T00:14:03.225Z,58.99
2022-11-26T00:16:31.201Z,52.22
2022-11-26T00:18:59.358Z,53.66
2022-11-26T00:21:27.293Z,55.80
2022-11-26T00:23:55.739Z,57.22
2022-11-26T00:26:25.268Z,59.35
2022-11-26T00:29:00.328Z,61.40
2022-11-26T00:31:29.575Z,70.36
2022-11-26T00:33:58.189Z,69.74
2022-11-26T00:36:30.404Z,61.49
2022-11-26T00:39:04.308Z,53.54
2022-11-26T00:41:35.600Z,53.64
2022-11-26T00:44:03.896Z,56.61
2022-11-26T00:46:32.132Z,58.93
2022-11-26T00:49:00.242Z,60.98
2022-11-26T00:51:28.876Z,68.24
2022-11-26T00:54:01.737Z,67.09
2022-11-26T00:56:35.160Z,55.91
2022-11-26T00:59:06.607Z,53.33
2022-11-26T01:01:34.640Z,56.12
2022-11-26T01:04:03.062Z,58.84
2022-11-26T01:06:34.711Z,60.70
2022-11-26T01:09:05.186Z,68.51
2022-11-26T01:11:33.617Z,66.65
2022-11-26T01:14:01.747Z,59.27
2022-11-26T01:16:34.394Z,53.49
2022-11-26T01:19:02.712Z,54.55
2022-11-26T01:21:31.734Z,57.08
2022-11-26T01:23:59.908Z,59.41
2022-11-26T01:26:33.840Z,61.31
2022-11-26T01:29:01.673Z,68.05
2022-11-26T01:31:30.266Z,67.38
2022-11-26T01:33:58.958Z,61.25
2022-11-26T01:36:33.036Z,54.64
2022-11-26T01:39:02.948Z,54.28
2022-11-26T01:42:08.429Z,56.82
2022-11-26T01:44:37.525Z,59.19
2022-11-26T01:47:28.814Z,61.38
2022-11-26T01:50:28.471Z,69.24
2022-11-26T01:53:01.542Z,65.99
2022-11-26T01:55:36.751Z,57.08
2022-11-26T01:58:09.292Z,53.53
2022-11-26T02:00:37.437Z,55.73
2022-11-26T02:03:06.381Z,58.39
2022-11-26T02:05:41.395Z,60.45
2022-11-26T02:08:11.895Z,66.97
2022-11-26T02:10:40.779Z,67.05
2022-11-26T02:13:08.867Z,61.41
2022-11-26T02:15:51.106Z,54.24
2022-11-26T02:18:20.533Z,55.19
2022-11-26T02:21:20.166Z,57.78
2022-11-26T02:23:59.724Z,60.11
2022-11-26T02:26:27.699Z,67.58
2022-11-26T02:29:08.476Z,67.06
2022-11-26T02:31:46.275Z,60.00
2022-11-26T02:34:37.244Z,52.57
2022-11-26T02:37:15.452Z,54.01
2022-11-26T02:39:43.669Z,56.96
2022-11-26T02:42:31.044Z,59.23
2022-11-26T02:45:13.365Z,61.00
2022-11-26T02:47:45.074Z,69.59
2022-11-26T02:50:26.797Z,65.99
2022-11-26T02:52:57.216Z,55.81
2022-11-26T02:55:33.833Z,52.73
2022-11-26T02:58:02.257Z,55.18
2022-11-26T03:00:34.393Z,57.94
2022-11-26T03:03:24.127Z,59.93
2022-11-26T03:05:55.985Z,61.64
2022-11-26T03:08:25.668Z,69.47
2022-11-26T03:10:53.846Z,67.87
2022-11-26T03:13:21.862Z,59.84
2022-11-26T03:15:50.064Z,53.10
2022-11-26T03:18:18.131Z,54.28
2022-11-26T03:20:46.376Z,56.97
2022-11-26T03:23:14.369Z,59.26
2022-11-26T03:25:42.490Z,61.22
2022-11-26T03:28:10.385Z,68.28
2022-11-26T03:30:38.478Z,67.51
2022-11-26T03:33:06.316Z,58.84
2022-11-26T03:35:34.422Z,54.10
2022-11-26T03:38:02.451Z,55.65
2022-11-26T03:40:30.826Z,58.11
2022-11-26T03:42:58.808Z,60.24
2022-11-26T03:45:27.057Z,61.97
2022-11-26T03:47:55.511Z,67.82
2022-11-26T03:50:23.724Z,69.72
2022-11-26T03:52:51.486Z,61.20
2022-11-26T03:55:19.650Z,52.46
2022-11-26T03:57:48.260Z,53.02
2022-11-26T04:00:18.315Z,55.80
2022-11-26T04:02:46.950Z,58.26
2022-11-26T04:05:15.328Z,60.37
2022-11-26T04:07:43.691Z,66.81
2022-11-26T04:10:11.812Z,66.67
2022-11-26T04:12:40.181Z,59.16
2022-11-26T04:15:08.705Z,53.50
2022-11-26T04:17:36.517Z,54.95
2022-11-26T04:20:05.272Z,57.59
2022-11-26T04:22:33.117Z,59.78
2022-11-26T04:25:00.971Z,61.56
2022-11-26T04:27:29.037Z,69.22
2022-11-26T04:29:57.014Z,67.64
2022-11-26T04:32:25.572Z,56.64
2022-11-26T04:34:53.496Z,51.62
2022-11-26T04:37:21.531Z,53.79
2022-11-26T04:39:49.349Z,56.54
2022-11-26T04:42:17.370Z,59.00
2022-11-26T04:44:45.449Z,60.90
2022-11-26T04:47:13.307Z,66.89
2022-11-26T04:49:41.473Z,66.71
2022-11-26T04:52:09.971Z,62.68
2022-11-26T04:54:38.441Z,56.69
2022-11-26T04:57:07.783Z,55.71
2022-11-26T04:59:35.980Z,57.86
2022-11-26T05:02:03.915Z,59.97
2022-11-26T05:04:32.165Z,61.89
2022-11-26T05:07:00.137Z,66.86
2022-11-26T05:09:28.175Z,69.52
2022-11-26T05:11:56.152Z,65.42
2022-11-26T05:14:24.275Z,57.55
2022-11-26T05:16:52.308Z,52.25
2022-11-26T05:19:20.426Z,54.09
2022-11-26T05:21:48.245Z,56.76
2022-11-26T05:24:16.295Z,58.99
2022-11-26T05:26:44.316Z,60.94
2022-11-26T05:29:12.488Z,66.95
2022-11-26T05:31:40.500Z,66.56
2022-11-26T05:34:08.578Z,60.73
2022-11-26T05:36:36.813Z,57.31
2022-11-26T05:39:05.035Z,56.83
2022-11-26T05:41:32.960Z,58.73
2022-11-26T05:44:01.375Z,60.57
2022-11-26T05:46:30.292Z,65.15
2022-11-26T05:48:58.315Z,68.58
2022-11-26T05:51:26.295Z,63.17
2022-11-26T05:53:54.375Z,60.64
2022-11-26T05:56:22.311Z,57.09
2022-11-26T05:58:50.277Z,56.45
2022-11-26T06:01:18.907Z,58.43
2022-11-26T06:03:47.321Z,59.89
2022-11-26T06:06:15.319Z,61.91
2022-11-26T06:08:43.282Z,67.80
2022-11-26T06:11:13.532Z,68.31
2022-11-26T06:13:41.437Z,64.04
2022-11-26T06:16:10.754Z,61.92
2022-11-26T06:18:39.986Z,60.31
2022-11-26T06:21:13.125Z,61.07
2022-11-26T06:23:46.115Z,53.93
2022-11-26T06:26:20.027Z,52.60
2022-11-26T06:28:48.205Z,55.37
2022-11-26T06:31:16.501Z,57.69
2022-11-26T06:33:44.524Z,59.78
2022-11-26T06:36:12.666Z,61.26
2022-11-26T06:38:40.613Z,66.35
2022-11-26T06:41:09.078Z,69.11
2022-11-26T06:43:37.551Z,64.12
2022-11-26T06:46:08.650Z,57.56
2022-11-26T06:48:37.993Z,53.25
2022-11-26T06:51:06.287Z,55.34
2022-11-26T06:53:34.340Z,57.76
2022-11-26T06:56:04.076Z,59.56
2022-11-26T06:58:32.921Z,61.09
2022-11-26T07:01:01.099Z,65.88
2022-11-26T07:03:33.219Z,69.62
2022-11-26T07:06:01.913Z,64.18
2022-11-26T07:08:29.723Z,60.55
2022-11-26T07:11:03.344Z,55.59
2022-11-26T07:13:31.481Z,55.36
2022-11-26T07:16:04.136Z,57.77
2022-11-26T07:18:32.844Z,59.46
2022-11-26T07:21:06.691Z,61.05
2022-11-26T07:23:34.668Z,64.75
2022-11-26T07:26:03.775Z,68.44
2022-11-26T07:28:32.377Z,68.15
2022-11-26T07:31:09.220Z,65.13
2022-11-26T07:33:41.621Z,63.62
2022-11-26T07:36:15.672Z,61.91
2022-11-26T07:38:43.863Z,60.48
2022-11-26T07:41:14.979Z,55.34
2022-11-26T07:43:44.224Z,54.44
2022-11-26T07:46:15.822Z,56.82
2022-11-26T07:48:45.009Z,59.16
2022-11-26T07:51:30.668Z,61.07
2022-11-26T07:54:00.599Z,67.26
2022-11-26T07:56:29.579Z,68.05
2022-11-26T07:58:57.920Z,64.37
2022-11-26T08:01:29.843Z,60.71
2022-11-26T08:04:00.507Z,55.28
2022-11-26T08:06:33.014Z,55.35
2022-11-26T08:09:02.740Z,57.57
2022-11-26T08:11:33.099Z,59.49
2022-11-26T08:14:12.007Z,61.45
2022-11-26T08:16:41.038Z,67.66
2022-11-26T08:19:12.777Z,68.86
2022-11-26T08:21:41.044Z,63.14
2022-11-26T08:24:14.626Z,58.40
2022-11-26T08:26:44.399Z,54.29
2022-11-26T08:29:13.635Z,56.06
2022-11-26T08:31:46.166Z,58.03
2022-11-26T08:34:16.102Z,60.58
2022-11-26T08:36:45.685Z,61.83
2022-11-26T08:39:17.503Z,66.35
2022-11-26T08:41:51.614Z,69.51
2022-11-26T08:44:21.393Z,66.57
2022-11-26T08:46:49.822Z,61.25
2022-11-26T08:49:18.089Z,54.90
2022-11-26T08:51:46.271Z,54.22
2022-11-26T08:54:14.458Z,56.74
2022-11-26T08:56:42.480Z,58.83
2022-11-26T08:59:10.521Z,60.43
2022-11-26T09:01:38.602Z,65.89
2022-11-26T09:04:06.667Z,68.33
2022-11-26T09:06:38.827Z,63.89
2022-11-26T09:09:15.088Z,60.57
2022-11-26T09:11:50.532Z,56.50
2022-11-26T09:14:21.110Z,56.24
2022-11-26T09:16:49.803Z,58.29
2022-11-26T09:19:18.535Z,60.51
2022-11-26T09:21:47.374Z,64.66
2022-11-26T09:24:16.805Z,67.32
2022-11-26T09:26:45.219Z,63.82
2022-11-26T09:29:14.802Z,60.35
2022-11-26T09:32:07.318Z,56.99
2022-11-26T09:34:37.400Z,56.84
2022-11-26T09:37:05.656Z,58.90
2022-11-26T09:39:33.650Z,60.70
2022-11-26T09:42:30.212Z,64.00
2022-11-26T09:45:16.521Z,67.96
2022-11-26T09:47:49.322Z,66.20
2022-11-26T09:50:23.592Z,63.02
2022-11-26T09:53:02.856Z,60.64
2022-11-26T09:55:38.916Z,58.93
2022-11-26T09:58:26.900Z,53.62
2022-11-26T10:00:59.021Z,55.05
2022-11-26T10:03:32.850Z,57.65
2022-11-26T10:06:07.851Z,59.32
2022-11-26T10:08:57.896Z,61.37
2022-11-26T10:11:36.906Z,67.44
2022-11-26T10:14:13.571Z,69.55
2022-11-26T10:17:12.584Z,62.82
2022-11-26T10:19:58.515Z,54.72
2022-11-26T10:22:37.663Z,55.04
2022-11-26T10:25:23.080Z,57.71
2022-11-26T10:27:54.260Z,59.80
2022-11-26T10:30:25.529Z,61.36
2022-11-26T10:32:55.857Z,68.10
2022-11-26T10:35:29.609Z,70.15
2022-11-26T10:37:58.604Z,60.32
2022-11-26T10:40:31.811Z,51.51
2022-11-26T10:43:06.096Z,52.45
2022-11-26T10:45:46.579Z,55.05
2022-11-26T10:48:24.527Z,57.20
2022-11-26T10:51:01.718Z,59.40
2022-11-26T10:53:34.798Z,61.01
2022-11-26T10:56:16.801Z,68.08
2022-11-26T10:58:45.929Z,67.87
2022-11-26T11:01:15.477Z,58.37
2022-11-26T11:04:09.735Z,52.78
2022-11-26T11:06:42.431Z,54.48
2022-11-26T11:09:25.992Z,57.37
2022-11-26T11:12:20.844Z,58.79
2022-11-26T11:14:50.797Z,61.05
2022-11-26T11:17:29.506Z,67.81
2022-11-26T11:20:01.444Z,68.74
2022-11-26T11:22:29.862Z,61.54
2022-11-26T11:25:00.273Z,54.93
2022-11-26T11:27:39.607Z,54.52
2022-11-26T11:30:28.144Z,56.03
2022-11-26T11:32:58.146Z,58.64
2022-11-26T11:35:31.170Z,60.94
2022-11-26T11:37:59.628Z,66.30
2022-11-26T11:40:30.706Z,67.38
2022-11-26T11:43:01.943Z,63.21
2022-11-26T11:45:40.455Z,55.03
2022-11-26T11:48:20.792Z,53.47
2022-11-26T11:50:58.624Z,55.88
2022-11-26T11:53:35.150Z,58.51
2022-11-26T11:56:25.393Z,60.46
2022-11-26T11:59:11.835Z,67.60
2022-11-26T12:02:01.740Z,66.61
2022-11-26T12:04:39.133Z,61.73
2022-11-26T12:07:50.437Z,61.17
2022-11-26T12:10:47.861Z,54.80
2022-11-26T12:13:17.293Z,55.97
2022-11-26T12:15:52.637Z,58.19
2022-11-26T12:18:33.040Z,60.26
2022-11-26T12:21:12.817Z,65.63
2022-11-26T12:24:00.253Z,66.71
2022-11-26T12:26:33.863Z,67.13
2022-11-26T12:29:15.476Z,57.00
2022-11-26T12:31:55.633Z,51.21
2022-11-26T12:34:24.016Z,53.08
2022-11-26T12:37:00.554Z,56.00
2022-11-26T12:39:44.727Z,57.94
2022-11-26T12:42:21.927Z,59.87
2022-11-26T12:44:51.929Z,61.14
2022-11-26T12:47:38.906Z,68.84
2022-11-26T12:50:21.304Z,68.04
2022-11-26T12:53:22.188Z,57.46
2022-11-26T12:56:14.692Z,53.75
2022-11-26T12:58:48.693Z,55.59
2022-11-26T13:01:16.931Z,58.13
2022-11-26T13:03:45.046Z,60.32
2022-11-26T13:06:46.953Z,63.97
2022-11-26T13:09:24.273Z,65.56
2022-11-26T13:12:18.728Z,64.90
2022-11-26T13:15:01.219Z,65.12
2022-11-26T13:17:42.108Z,64.76
2022-11-26T13:20:42.915Z,63.94
2022-11-26T13:23:54.544Z,64.96
2022-11-26T13:26:48.585Z,62.48
2022-11-26T13:29:24.262Z,63.42
2022-11-26T13:31:55.611Z,62.50
2022-11-26T13:34:30.697Z,60.10
2022-11-26T13:37:17.342Z,52.51
2022-11-26T13:40:14.843Z,52.49
2022-11-26T13:42:42.671Z,54.75
2022-11-26T13:45:16.986Z,57.62
2022-11-26T13:48:01.119Z,58.67
2022-11-26T13:50:35.513Z,60.58
2022-11-26T13:53:27.277Z,67.26
2022-11-26T13:55:59.216Z,68.20
2022-11-26T13:58:34.603Z,60.41
2022-11-26T14:01:40.752Z,52.03
2022-11-26T14:04:11.716Z,52.66
2022-11-26T14:07:05.471Z,55.40
2022-11-26T14:09:42.511Z,58.01
2022-11-26T14:12:12.093Z,60.11
2022-11-26T14:14:41.814Z,61.43
2022-11-26T14:17:19.696Z,67.53
2022-11-26T14:19:59.310Z,69.01
2022-11-26T14:22:29.458Z,64.23
2022-11-26T14:25:07.403Z,55.08
2022-11-26T14:27:40.650Z,52.74
2022-11-26T14:30:08.839Z,54.66
2022-11-26T14:32:50.818Z,57.19
2022-11-26T14:35:30.630Z,58.70
2022-11-26T14:38:05.204Z,60.75
2022-11-26T14:40:36.196Z,66.21
2022-11-26T14:43:09.642Z,69.97
2022-11-26T14:45:37.826Z,63.11
2022-11-26T14:48:15.461Z,54.49
2022-11-26T14:50:44.791Z,52.41
2022-11-26T14:53:13.266Z,54.70
2022-11-26T14:55:44.621Z,57.03
2022-11-26T14:58:26.071Z,59.12
2022-11-26T15:01:07.438Z,60.30
2022-11-26T15:03:35.711Z,68.78
2022-11-26T15:06:03.729Z,68.24
2022-11-26T15:08:31.837Z,61.87
2022-11-26T15:11:03.150Z,53.52
2022-11-26T15:13:39.373Z,51.87
2022-11-26T15:16:32.364Z,53.76
2022-11-26T15:19:02.454Z,56.02
2022-11-26T15:21:31.813Z,58.73
2022-11-26T15:24:04.141Z,60.22
2022-11-26T15:26:34.728Z,61.50
2022-11-26T15:29:25.131Z,69.71
2022-11-26T15:31:54.381Z,67.58
2022-11-26T15:34:26.970Z,59.40
2022-11-26T15:36:57.748Z,53.53
2022-11-26T15:39:32.533Z,54.46
2022-11-26T15:42:06.531Z,56.62
2022-11-26T15:44:42.350Z,58.16
2022-11-26T15:47:20.649Z,59.51
2022-11-26T15:49:58.336Z,66.35
2022-11-26T15:52:40.863Z,69.35
2022-11-26T15:55:13.213Z,60.56
2022-11-26T15:57:42.730Z,53.30
2022-11-26T16:00:29.209Z,52.88
2022-11-26T16:02:57.275Z,54.85
2022-11-26T16:05:38.259Z,57.34
2022-11-26T16:08:28.117Z,59.38
2022-11-26T16:11:07.447Z,60.54
2022-11-26T16:13:39.287Z,61.64
2022-11-26T16:16:18.818Z,68.72
2022-11-26T16:19:01.851Z,71.04
2022-11-26T16:21:34.529Z,60.51
2022-11-26T16:24:07.302Z,53.27
2022-11-26T16:27:09.251Z,53.84
2022-11-26T16:29:37.359Z,55.98
2022-11-26T16:32:05.288Z,58.11
2022-11-26T16:34:33.174Z,59.86
2022-11-26T16:37:03.653Z,60.94
2022-11-26T16:39:40.969Z,67.02
2022-11-26T16:42:18.005Z,69.80
2022-11-26T16:44:46.248Z,61.20
2022-11-26T16:47:24.101Z,53.90
2022-11-26T16:50:04.657Z,53.78
2022-11-26T16:52:36.179Z,56.18
2022-11-26T16:55:04.300Z,58.02
2022-11-26T16:57:32.180Z,59.67
2022-11-26T17:00:06.272Z,61.32
2022-11-26T17:02:34.410Z,66.46
2022-11-26T17:05:02.731Z,67.90
2022-11-26T17:08:02.530Z,65.19
2022-11-26T17:10:30.875Z,60.58
2022-11-26T17:12:58.745Z,57.69
2022-11-26T17:15:26.818Z,57.75
2022-11-26T17:18:02.682Z,59.05
2022-11-26T17:20:31.095Z,60.70
2022-11-26T17:22:59.217Z,63.32
2022-11-26T17:25:27.661Z,68.68
2022-11-26T17:27:56.266Z,66.36
2022-11-26T17:30:25.199Z,62.16
2022-11-26T17:32:53.121Z,60.77
2022-11-26T17:35:21.139Z,60.31
2022-11-26T17:37:49.334Z,61.66
2022-11-26T17:40:20.596Z,61.23
2022-11-26T17:42:50.113Z,55.99
2022-11-26T17:45:19.524Z,54.85
2022-11-26T17:47:49.024Z,56.43
2022-11-26T17:50:24.057Z,58.67
2022-11-26T17:52:52.875Z,60.10
2022-11-26T17:55:23.290Z,61.63
2022-11-26T17:57:51.778Z,68.99
2022-11-26T18:00:26.306Z,69.00
2022-11-26T18:02:54.581Z,61.84
2022-11-26T18:05:23.159Z,54.84
2022-11-26T18:07:52.057Z,53.33
2022-11-26T18:10:22.011Z,55.46
2022-11-26T18:12:53.680Z,57.64
2022-11-26T18:15:27.238Z,59.48
2022-11-26T18:17:55.794Z,60.89
2022-11-26T18:20:26.540Z,67.17
2022-11-26T18:22:57.873Z,69.82
2022-11-26T18:25:27.200Z,61.94
2022-11-26T18:27:55.529Z,54.96
2022-11-26T18:30:24.937Z,53.43
2022-11-26T18:32:53.068Z,55.24
2022-11-26T18:35:22.960Z,57.63
2022-11-26T18:37:57.311Z,59.55
2022-11-26T18:40:25.431Z,61.11
2022-11-26T18:42:53.591Z,67.08
2022-11-26T18:45:21.966Z,70.01
2022-11-26T18:47:49.952Z,62.86
2022-11-26T18:50:18.282Z,55.01
2022-11-26T18:52:46.531Z,53.38
2022-11-26T18:55:15.352Z,55.35
2022-11-26T18:57:43.311Z,57.69
2022-11-26T21:01:47.811Z,72.53
2022-11-26T21:04:17.613Z,67.26
2022-11-26T21:06:45.604Z,63.22
2022-11-26T21:09:16.737Z,58.08
2022-11-26T21:11:44.840Z,52.27
2022-11-26T21:14:15.230Z,53.85
2022-11-26T21:16:43.888Z,56.22
2022-11-26T21:19:13.119Z,58.75
2022-11-26T21:21:42.101Z,59.92
2022-11-26T21:24:10.476Z,61.18
2022-11-26T21:26:38.492Z,67.07
2022-11-26T21:29:06.454Z,70.04
2022-11-26T21:31:34.671Z,66.80
2022-11-26T21:34:07.472Z,62.15
2022-11-26T21:36:37.227Z,56.78
2022-11-26T21:39:06.600Z,55.68
2022-11-26T21:41:37.015Z,57.66
2022-11-26T21:44:06.024Z,59.85
2022-11-26T21:46:38.615Z,61.49
2022-11-26T21:49:08.410Z,66.39
2022-11-26T21:51:37.896Z,71.76
2022-11-26T21:54:05.972Z,63.20
2022-11-26T21:56:34.244Z,56.32
2022-11-26T21:59:02.314Z,55.47
2022-11-26T22:01:33.657Z,57.72
2022-11-26T22:04:08.305Z,59.78
2022-11-26T22:06:36.696Z,61.89
2022-11-26T22:09:05.968Z,68.69
2022-11-26T22:11:37.492Z,69.85
2022-11-26T22:14:06.937Z,64.38
2022-11-26T22:16:35.200Z,62.21
2022-11-26T22:19:03.938Z,60.94
2022-11-26T22:21:35.455Z,53.37
2022-11-26T22:24:09.467Z,53.66
2022-11-26T22:26:48.589Z,56.27
2022-11-26T22:29:19.667Z,59.67
2022-11-26T22:31:50.485Z,61.15
2022-11-26T22:34:22.556Z,64.37
2022-11-26T22:36:50.846Z,68.83
2022-11-26T22:39:23.271Z,67.36
2022-11-26T22:41:51.235Z,62.92
2022-11-26T22:44:19.241Z,62.65
2022-11-26T22:46:47.664Z,61.77
2022-11-26T22:49:20.573Z,60.02
2022-11-26T22:51:48.688Z,59.54
2022-11-26T22:54:19.131Z,56.65
2022-11-26T22:56:47.958Z,56.67
2022-11-26T22:59:16.060Z,58.25
2022-11-26T23:01:43.999Z,60.21
2022-11-26T23:04:12.182Z,61.70
2022-11-26T23:06:40.859Z,67.83
2022-11-26T23:09:09.871Z,69.60
2022-11-26T23:11:40.550Z,63.81
2022-11-26T23:14:12.091Z,60.66
2022-11-26T23:16:42.388Z,58.41
2022-11-26T23:19:16.504Z,55.50
2022-11-26T23:21:47.157Z,56.99
2022-11-26T23:24:16.224Z,58.86
2022-11-26T23:26:45.043Z,61.06
2022-11-26T23:29:14.187Z,66.52
2022-11-26T23:31:44.489Z,68.55
2022-11-26T23:34:14.184Z,64.86
2022-11-26T23:36:42.421Z,60.70
2022-11-26T23:39:12.567Z,56.48
2022-11-26T23:41:40.932Z,55.43
2022-11-26T23:44:08.901Z,57.65
2022-11-26T23:46:37.107Z,59.75
2022-11-26T23:49:05.214Z,61.20
2022-11-26T23:51:33.815Z,66.89
2022-11-26T23:54:04.142Z,68.52
2022-11-26T23:56:35.853Z,63.17
2022-11-26T23:59:04.975Z,61.25
